Record high temperature 16.9°C Record low temperature 2.9°C Record high gust 90.5 m/s Record high average 77.0 m/s Record daily rain 22.6 mm Record low windchill -0.8°C Record high barometer 1026.8 hPa Record low barometer 988.6 hPa
Daily high pressure 1005.2 mb Daily low pressure 1004.3 mb Daily low windchill 5.4°C Daily high heat index 7.1°C Daily high gust speed 2.2 m/s WNW Daily high average speed 2.2 m/s ESE

This page is updated from recent data collected by a DAVIS VANTAGE PRO weather station Use the Reload or Refresh facility on your browser to retrieve the latest data.



Weather report/warning/Metars

Tromso / Langnes, Norway (ENTC) 69-41N 018-55E 10M
Mar 18, 2021 - 12:50 PM EDT / 2021.03.18 1650 UTC
Wind: from the SW (230 degrees) at 5 MPH (4 KT) (direction variable):0
Visibility: greater than 7 mile(s):0
Temperature: 24 F (-4 C)
Windchill: 17 F (-8 C):1
Dew Point: 17 F (-8 C)
Relative Humidity: 73%
Pressure (altimeter): 30.39 in. Hg (1029 hPa)
ob: ENTC 181650Z 23004KT 210V280 CAVOK M04/M08 Q1029 NOSIG RMK WIND 2600FT 17012KT
cycle: 17



The data is logged at two minute intervals, but there is data recorded every minute.

Use the RELOAD facility on your browser to retrieve the latest data.

Click here for a daily update of the averages/extremes to date for the month
Created by "Weather Display" software version 10.37S at this start time/date 21:03:20 24.02.2021